Time;durP1;ratioP1;P1;durP2;ratioP2;P2;SDS_P1;SDS_P2;PMS_P1;PMS_P2;Temp;Humidity;BMP_temperature;BMP_pressure;BME280_temperature;BME280_humidity;BME280_pressure;Samples;Min_cycle;Max_cycle;Signal;HPM_P1;HPM_P2
2021/12/30 00:01:08;;;;;;;10.15;2.00;;;;;;;9.62;98.80;101173.03;4994220;28;98755;-42
2021/12/30 00:03:34;;;;;;;10.25;2.40;;;;;;;9.65;98.93;101176.44;4992975;28;100522;-42
2021/12/30 00:06:00;;;;;;;10.80;2.28;;;;;;;9.63;98.84;101167.56;4977062;28;96677;-42
2021/12/30 00:08:25;;;;;;;2.55;1.25;;;;;;;9.65;98.82;101167.47;4995008;28;96676;-42
2021/12/30 00:10:52;;;;;;;7.93;2.38;;;;;;;9.68;98.84;101170.88;4993744;28;110059;-42
2021/12/30 00:13:30;;;;;;;14.45;2.75;;;;;;;9.72;98.82;101172.44;4993056;28;103183;-42
2021/12/30 00:15:56;;;;;;;5.20;2.17;;;;;;;9.81;99.03;101184.63;4993152;28;96501;-42
2021/12/30 00:18:22;;;;;;;7.97;2.63;;;;;;;9.87;99.16;101180.75;4993267;28;96851;-42
2021/12/30 00:20:47;;;;;;;22.52;2.47;;;;;;;9.79;99.27;101168.47;4993065;28;100957;-42
2021/12/30 00:23:13;;;;;;;6.88;2.05;;;;;;;9.87;99.06;101183.44;4994507;28;97409;-42
2021/12/30 00:25:41;;;;;;;13.07;1.95;;;;;;;9.84;99.26;101170.06;4993170;28;96518;-42
2021/12/30 00:28:11;;;;;;;18.45;3.60;;;;;;;9.92;99.02;101182.22;4993591;28;96940;-42
2021/12/30 00:30:36;;;;;;;7.75;2.67;;;;;;;9.94;99.51;101176.75;4992850;28;101179;-42
2021/12/30 00:33:02;;;;;;;6.88;2.17;;;;;;;9.89;99.36;101165.28;4992602;28;101150;-42
2021/12/30 00:35:27;;;;;;;9.13;2.28;;;;;;;9.90;99.47;101169.75;4994198;28;96494;-42
2021/12/30 00:37:53;;;;;;;6.78;2.30;;;;;;;9.89;99.22;101165.28;4994330;28;96764;-42
2021/12/30 00:40:18;;;;;;;14.65;2.88;;;;;;;9.99;99.28;101169.25;4994447;28;97858;-42
2021/12/30 00:42:43;;;;;;;2.78;1.67;;;;;;;10.08;99.31;101185.00;4994273;28;97852;-42
2021/12/30 00:45:09;;;;;;;11.23;2.83;;;;;;;10.11;99.31;101179.41;4993905;28;103152;-42
2021/12/30 00:47:34;;;;;;;3.78;2.22;;;;;;;10.07;99.52;101175.13;4993948;28;96892;-42
2021/12/30 00:50:00;;;;;;;13.98;2.67;;;;;;;10.10;99.25;101172.22;4994324;28;97477;-42
2021/12/30 00:52:25;;;;;;;8.85;2.58;;;;;;;10.22;99.27;101195.06;4994476;28;97869;-42
2021/12/30 00:54:51;;;;;;;10.20;2.10;;;;;;;10.12;99.66;101186.56;4993093;28;96676;-42
2021/12/30 00:57:16;;;;;;;11.52;3.28;;;;;;;10.21;99.27;101194.19;4994179;28;96731;-42
2021/12/30 00:59:42;;;;;;;8.27;2.80;;;;;;;10.18;99.60;101194.38;4993102;28;99451;-42
2021/12/30 01:02:07;;;;;;;10.57;3.00;;;;;;;10.27;99.73;101192.97;4993856;28;99115;-43
2021/12/30 01:04:33;;;;;;;5.53;2.38;;;;;;;10.28;99.58;101191.16;4994500;28;96666;-42
2021/12/30 01:06:58;;;;;;;5.40;2.40;;;;;;;10.29;99.63;101188.38;4994170;28;96784;-42
2021/12/30 01:09:24;;;;;;;7.63;2.30;;;;;;;10.39;100.00;101196.88;4993694;28;98883;-42
2021/12/30 01:11:49;;;;;;;13.05;4.20;;;;;;;10.38;99.68;101193.28;4994128;28;97752;-43
2021/12/30 01:14:21;;;;;;;7.03;2.78;;;;;;;10.27;99.85;101165.03;4994217;28;96701;-42
2021/12/30 01:16:52;;;;;;;7.93;3.03;;;;;;;10.44;99.88;101178.56;4996461;28;96605;-42
2021/12/30 01:21:46;;;;;;;11.15;3.70;;;;;;;10.35;99.92;101155.56;4997095;28;97844;-42
2021/12/30 01:24:11;;;;;;;14.07;3.90;;;;;;;10.40;100.00;101158.00;4996994;28;96565;-42
2021/12/30 01:26:36;;;;;;;12.32;4.03;;;;;;;10.43;100.00;101152.41;4996965;28;102389;-42
2021/12/30 01:29:02;;;;;;;16.35;3.63;;;;;;;10.53;99.83;101175.31;4996977;28;97980;-42
2021/12/30 01:31:28;;;;;;;9.57;3.70;;;;;;;10.52;100.00;101176.28;4995643;28;100944;-42
2021/12/30 01:33:54;;;;;;;12.40;2.85;;;;;;;10.54;100.00;101181.63;4997102;28;96508;-42
2021/12/30 01:36:21;;;;;;;11.52;2.75;;;;;;;10.51;100.00;101176.34;4997205;28;96854;-42
2021/12/30 01:38:47;;;;;;;5.22;2.28;;;;;;;10.52;100.00;101187.13;4996816;28;100569;-42
2021/12/30 01:41:13;;;;;;;8.93;2.85;;;;;;;10.55;100.00;101192.34;4995733;28;100461;-42
2021/12/30 01:43:39;;;;;;;7.28;3.22;;;;;;;10.56;100.00;101188.69;4995554;28;96709;-42
2021/12/30 01:46:08;;;;;;;12.98;2.92;;;;;;;10.66;100.00;101205.31;4995533;28;96976;-42
2021/12/30 01:48:33;;;;;;;10.30;2.42;;;;;;;10.62;100.00;101207.28;4994831;28;101499;-42
2021/12/30 01:50:59;;;;;;;7.50;2.30;;;;;;;10.61;100.00;101192.03;4996675;28;99182;-42
2021/12/30 01:53:24;;;;;;;6.13;2.50;;;;;;;10.62;100.00;101185.63;4995735;28;96511;-42
2021/12/30 01:55:50;;;;;;;5.15;1.80;;;;;;;10.61;100.00;101207.41;4996630;28;97355;-42
2021/12/30 01:58:16;;;;;;;6.75;2.30;;;;;;;10.56;100.00;101204.09;4995000;28;101365;-42
2021/12/30 02:00:44;;;;;;;7.65;2.05;;;;;;;10.66;100.00;101209.84;4994689;28;101493;-42
2021/12/30 02:03:09;;;;;;;5.85;2.78;;;;;;;10.76;100.00;101230.03;4995584;28;96652;-42
2021/12/30 02:05:37;;;;;;;5.70;2.58;;;;;;;10.79;100.00;101235.28;4996895;28;96953;-42
2021/12/30 02:08:04;;;;;;;10.48;2.72;;;;;;;10.70;100.00;101206.91;4995058;28;100875;-42
2021/12/30 02:10:30;;;;;;;8.73;2.30;;;;;;;10.71;100.00;101205.06;4994901;28;100622;-42
2021/12/30 02:12:56;;;;;;;6.10;2.85;;;;;;;10.73;99.97;101197.72;4995944;28;96610;-42
2021/12/30 02:15:21;;;;;;;7.88;3.35;;;;;;;10.68;100.00;101183.53;4996726;28;96510;-42
2021/12/30 02:17:49;;;;;;;7.30;3.15;;;;;;;10.86;100.00;101208.72;4996267;28;99707;-42
2021/12/30 02:20:44;;;;;;;12.63;3.42;;;;;;;10.90;100.00;101224.72;4996259;28;98028;-42
2021/12/30 02:23:10;;;;;;;7.15;2.35;;;;;;;10.80;99.93;101205.41;4992228;28;96710;-42
2021/12/30 02:25:36;;;;;;;6.15;3.40;;;;;;;10.91;99.92;101222.88;4996230;28;96784;-42
2021/12/30 02:28:09;;;;;;;9.30;4.65;;;;;;;10.91;100.00;101215.63;4995248;28;100018;-42
2021/12/30 02:30:35;;;;;;;5.22;2.50;;;;;;;10.93;100.00;101223.66;4996726;28;97903;-42
2021/12/30 02:33:00;;;;;;;6.88;2.55;;;;;;;10.87;99.95;101210.44;4995004;28;96695;-42
2021/12/30 02:35:26;;;;;;;9.85;3.00;;;;;;;10.90;100.00;101215.72;4996379;28;96799;-42
2021/12/30 02:37:51;;;;;;;10.82;4.78;;;;;;;11.02;99.98;101237.56;4995189;28;98491;-42
2021/12/30 02:40:27;;;;;;;5.90;2.30;;;;;;;11.03;100.00;101241.16;4994577;28;98839;-42
2021/12/30 02:42:53;;;;;;;5.93;2.83;;;;;;;10.95;100.00;101230.75;4994855;28;96650;-42
2021/12/30 02:45:18;;;;;;;5.68;2.22;;;;;;;11.03;100.00;101242.00;4996167;28;96835;-42
2021/12/30 02:47:44;;;;;;;2.97;2.15;;;;;;;10.94;99.56;101230.81;4995844;28;98162;-42
2021/12/30 02:50:09;;;;;;;3.35;2.00;;;;;;;11.01;100.00;101238.53;4995957;28;97970;-42
2021/12/30 02:52:34;;;;;;;3.55;1.95;;;;;;;11.02;100.00;101232.16;4995952;28;97552;-42
2021/12/30 02:55:00;;;;;;;4.88;2.40;;;;;;;10.99;100.00;101226.91;4996529;28;96807;-42
2021/12/30 02:57:26;;;;;;;5.47;2.33;;;;;;;11.11;100.00;101249.72;4995491;28;97919;-42
2021/12/30 02:59:51;;;;;;;4.35;1.50;;;;;;;11.11;100.00;101235.28;4995155;28;100053;-42
2021/12/30 03:02:16;;;;;;;5.32;2.92;;;;;;;11.19;100.00;101257.41;4995599;28;96575;-42
2021/12/30 03:04:42;;;;;;;3.25;2.15;;;;;;;11.22;100.00;101258.09;4995623;28;96907;-42
2021/12/30 03:07:07;;;;;;;5.13;2.03;;;;;;;11.12;100.00;101231.63;4995164;28;99398;-42
2021/12/30 03:09:33;;;;;;;5.60;2.45;;;;;;;11.19;99.93;101252.00;4995612;28;97911;-42
2021/12/30 03:11:58;;;;;;;5.13;3.33;;;;;;;11.20;100.00;101251.91;4995751;28;97257;-42
2021/12/30 03:14:25;;;;;;;5.40;2.67;;;;;;;11.23;100.00;101237.31;4995879;28;96795;-42
2021/12/30 03:16:51;;;;;;;10.38;2.35;;;;;;;11.23;100.00;101259.88;4995330;28;99278;-42
2021/12/30 03:19:17;;;;;;;4.95;2.42;;;;;;;11.24;100.00;101249.88;4994351;28;100887;-43
2021/12/30 03:21:42;;;;;;;6.25;2.67;;;;;;;11.11;100.00;101225.34;4994571;28;108736;-42
2021/12/30 03:24:08;;;;;;;5.13;2.40;;;;;;;11.03;100.00;101214.03;4995648;28;96754;-42
2021/12/30 03:26:35;;;;;;;7.10;2.42;;;;;;;11.11;100.00;101217.19;4994465;28;99646;-42
2021/12/30 03:29:00;;;;;;;4.93;2.95;;;;;;;11.20;100.00;101240.16;4995025;28;99179;-42
2021/12/30 03:31:26;;;;;;;4.55;2.28;;;;;;;11.17;100.00;101243.94;4995491;28;96631;-42
2021/12/30 03:33:52;;;;;;;4.50;2.15;;;;;;;11.15;100.00;101232.31;4995749;28;96827;-42
2021/12/30 03:36:18;;;;;;;2.70;1.52;;;;;;;11.10;100.00;101228.13;4995350;28;97326;-42
2021/12/30 03:38:47;;;;;;;7.55;2.72;;;;;;;11.10;100.00;101228.97;4992580;28;101213;-42
2021/12/30 03:41:14;;;;;;;4.22;1.80;;;;;;;11.18;100.00;101236.69;4993894;28;96605;-42
2021/12/30 03:43:40;;;;;;;3.65;2.20;;;;;;;11.17;100.00;101254.78;4994280;28;96989;-42
2021/12/30 03:46:07;;;;;;;4.68;2.25;;;;;;;11.19;100.00;101260.13;4994651;28;97474;-42
2021/12/30 03:48:35;;;;;;;5.65;2.17;;;;;;;11.08;100.00;101252.59;4993447;28;100893;-42
2021/12/30 03:51:06;;;;;;;7.07;2.90;;;;;;;11.17;100.00;101265.63;4993078;28;96758;-42
2021/12/30 03:53:37;;;;;;;3.67;1.55;;;;;;;11.10;100.00;101252.53;4995413;28;96625;-42
2021/12/30 03:56:05;;;;;;;3.75;1.67;;;;;;;11.06;100.00;101246.41;4994724;28;97984;-42
2021/12/30 03:58:30;;;;;;;3.30;1.63;;;;;;;11.08;100.00;101255.31;4993430;28;101100;-42
2021/12/30 04:00:55;;;;;;;6.15;2.08;;;;;;;11.20;100.00;101272.72;4994878;28;96821;-42
2021/12/30 04:03:21;;;;;;;2.30;1.27;;;;;;;11.18;100.00;101269.25;4995057;28;96729;-42
2021/12/30 04:05:46;;;;;;;4.70;1.92;;;;;;;11.09;100.00;101267.06;4994806;28;98378;-42
2021/12/30 04:08:20;;;;;;;3.58;1.73;;;;;;;11.15;100.00;101266.69;4995186;28;97973;-42
2021/12/30 04:10:46;;;;;;;7.68;2.55;;;;;;;11.07;100.00;101250.00;4994768;28;96608;-42
2021/12/30 04:13:11;;;;;;;5.20;2.05;;;;;;;11.05;100.00;101245.50;4994702;28;96869;-42
2021/12/30 04:15:37;;;;;;;4.05;1.75;;;;;;;11.04;100.00;101256.47;4994572;28;97520;-42
2021/12/30 04:18:02;;;;;;;4.60;2.30;;;;;;;11.13;100.00;101266.78;4994653;28;98032;-42
2021/12/30 04:20:27;;;;;;;4.00;1.77;;;;;;;11.13;100.00;101261.38;4995333;28;96628;-42
2021/12/30 04:22:53;;;;;;;6.78;2.22;;;;;;;11.12;100.00;101277.72;4994870;28;96806;-42
2021/12/30 04:25:18;;;;;;;3.78;1.77;;;;;;;11.07;100.00;101256.28;4994575;28;98035;-42
2021/12/30 04:27:44;;;;;;;4.93;2.22;;;;;;;11.11;100.00;101278.66;4994414;28;101869;-42
2021/12/30 04:30:11;;;;;;;2.65;1.35;;;;;;;11.08;100.00;101271.56;4993419;28;96553;-42
2021/12/30 04:32:37;;;;;;;7.50;1.98;;;;;;;11.03;100.00;101271.84;4993441;28;96729;-42
2021/12/30 04:35:03;;;;;;;3.75;1.00;;;;;;;10.95;100.00;101268.69;4992953;28;98978;-42
2021/12/30 04:37:29;;;;;;;6.68;2.28;;;;;;;11.09;100.00;101289.59;4994442;28;99517;-42
2021/12/30 04:39:54;;;;;;;5.60;2.13;;;;;;;11.07;100.00;101275.25;4994309;28;96759;-42
2021/12/30 04:42:19;;;;;;;4.28;1.67;;;;;;;11.07;100.00;101277.09;4993982;28;106857;-42
2021/12/30 04:44:47;;;;;;;5.35;1.98;;;;;;;10.97;100.00;101255.94;4993993;28;99491;-42
2021/12/30 04:47:13;;;;;;;3.67;1.40;;;;;;;11.01;100.00;101259.31;4993801;28;97916;-42
2021/12/30 04:49:45;;;;;;;6.72;1.40;;;;;;;10.98;100.00;101260.38;4993847;28;96647;-42
2021/12/30 04:52:10;;;;;;;3.35;1.30;;;;;;;11.00;100.00;101265.72;4998014;28;96871;-42
2021/12/30 04:54:36;;;;;;;2.17;1.08;;;;;;;11.03;100.00;101274.53;4997475;28;99337;-42
2021/12/30 04:57:02;;;;;;;3.45;1.35;;;;;;;11.09;100.00;101269.75;4997924;28;97809;-42
2021/12/30 04:59:28;;;;;;;1.20;0.77;;;;;;;11.11;100.00;101278.66;4996235;28;96653;-42
2021/12/30 05:01:53;;;;;;;7.30;1.23;;;;;;;11.14;100.00;101273.94;4997576;28;96806;-42
2021/12/30 05:04:18;;;;;;;4.22;1.10;;;;;;;11.12;100.00;101277.72;4996942;28;100054;-42
2021/12/30 05:06:44;;;;;;;2.65;1.27;;;;;;;11.09;100.00;101261.63;4997646;28;97302;-42
2021/12/30 05:09:09;;;;;;;2.55;0.88;;;;;;;11.15;100.00;101270.25;4997971;28;96420;-42
2021/12/30 05:11:36;;;;;;;7.60;1.15;;;;;;;11.22;100.00;101276.22;4997881;28;96835;-42
2021/12/30 05:14:02;;;;;;;4.28;1.42;;;;;;;11.27;100.00;101291.28;4995719;28;99260;-42
2021/12/30 05:16:28;;;;;;;2.70;0.93;;;;;;;11.08;100.00;101255.31;4995814;28;100907;-42
2021/12/30 05:18:56;;;;;;;4.68;1.13;;;;;;;11.20;100.00;101275.41;4997561;28;96599;-41
2021/12/30 05:21:22;;;;;;;2.10;0.80;;;;;;;11.20;100.00;101283.56;4997797;28;96804;-42
2021/12/30 05:23:58;;;;;;;8.00;1.67;;;;;;;11.19;99.86;101285.41;4997260;28;98167;-42
2021/12/30 05:26:27;;;;;;;3.92;1.67;;;;;;;11.20;99.90;101278.13;4995619;28;98610;-42
2021/12/30 05:28:53;;;;;;;3.33;1.35;;;;;;;11.27;100.00;101312.06;4995471;28;96683;-42
2021/12/30 05:31:19;;;;;;;8.45;1.30;;;;;;;11.23;99.92;101296.97;4996032;28;96900;-42
2021/12/30 05:33:44;;;;;;;1.73;1.08;;;;;;;11.26;100.00;101291.34;4995706;28;98285;-42
2021/12/30 05:36:10;;;;;;;5.40;1.45;;;;;;;11.19;100.00;101282.69;4996409;28;116751;-42
2021/12/30 05:38:35;;;;;;;1.88;0.95;;;;;;;11.27;99.96;101318.41;4995920;28;96694;-42
2021/12/30 05:41:01;;;;;;;1.70;1.15;;;;;;;11.27;100.00;101295.78;4995759;28;96880;-43
2021/12/30 05:43:26;;;;;;;9.10;1.20;;;;;;;11.18;100.00;101274.66;4996768;28;99692;-42
2021/12/30 05:45:51;;;;;;;1.85;0.93;;;;;;;11.25;100.00;101282.34;4996385;28;118629;-42
2021/12/30 05:48:17;;;;;;;0.90;0.50;;;;;;;11.29;99.99;101284.88;4996993;28;96598;-42
2021/12/30 05:50:42;;;;;;;6.20;0.57;;;;;;;11.21;100.00;101267.22;4996964;28;96823;-42
2021/12/30 05:53:07;;;;;;;0.60;0.40;;;;;;;11.27;100.00;101287.66;4996449;28;97786;-42
2021/12/30 05:55:34;;;;;;;0.93;0.47;;;;;;;11.26;100.00;101296.78;4995173;28;129202;-42
2021/12/30 05:57:59;;;;;;;0.95;0.68;;;;;;;11.09;100.00;101262.50;4995529;28;96762;-42
2021/12/30 06:00:28;;;;;;;0.70;0.45;;;;;;;11.22;100.00;101292.47;4996188;28;96837;-42
2021/12/30 06:02:53;;;;;;;0.98;0.77;;;;;;;11.16;100.00;101280.16;4995468;28;98072;-42
2021/12/30 06:05:20;;;;;;;3.72;0.93;;;;;;;11.32;100.00;101307.28;4997168;28;96493;-42
2021/12/30 06:07:46;;;;;;;1.50;0.80;;;;;;;11.31;100.00;101321.78;4996995;28;96511;-42
2021/12/30 06:10:12;;;;;;;2.00;0.77;;;;;;;11.23;100.00;101305.09;4995854;28;96827;-42
2021/12/30 06:12:38;;;;;;;5.20;1.20;;;;;;;11.31;100.00;101326.34;4994797;28;100774;-42
2021/12/30 06:15:05;;;;;;;2.28;0.98;;;;;;;11.26;100.00;101316.63;4994959;28;104549;-42
2021/12/30 06:17:30;;;;;;;2.25;1.25;;;;;;;11.24;100.00;101315.84;4994729;28;96771;-42
2021/12/30 06:19:56;;;;;;;2.75;1.33;;;;;;;11.32;100.00;101317.22;4996008;28;107202;-42
2021/12/30 06:22:22;;;;;;;1.70;0.82;;;;;;;11.32;100.00;101325.38;4994883;28;100826;-42
2021/12/30 06:24:47;;;;;;;0.65;0.63;;;;;;;11.35;100.00;101334.22;4996202;28;99410;-42
2021/12/30 06:27:13;;;;;;;3.33;0.80;;;;;;;11.34;100.00;101337.88;4995124;28;96702;-42
2021/12/30 06:29:38;;;;;;;0.77;0.40;;;;;;;11.37;100.00;101356.72;4996471;28;96788;-42
2021/12/30 06:32:05;;;;;;;0.93;0.73;;;;;;;11.32;100.00;101353.41;4996304;28;97488;-42
2021/12/30 06:34:31;;;;;;;2.17;0.98;;;;;;;11.25;100.00;101325.75;4995099;28;101926;-42
2021/12/30 06:36:56;;;;;;;2.25;1.08;;;;;;;11.35;100.00;101355.06;4996330;28;96764;-42
2021/12/30 06:39:22;;;;;;;2.70;1.08;;;;;;;11.34;100.00;101337.88;4996409;28;96818;-42
2021/12/30 06:41:48;;;;;;;4.50;0.98;;;;;;;11.35;100.00;101346.91;4995431;28;98055;-42
2021/12/30 06:44:13;;;;;;;4.05;0.90;;;;;;;11.37;100.00;101345.88;4995936;28;97189;-42
2021/12/30 06:46:39;;;;;;;2.53;1.25;;;;;;;11.39;99.89;101343.94;4996062;28;96712;-42
2021/12/30 06:49:09;;;;;;;3.38;0.98;;;;;;;11.27;100.00;101318.41;4995981;28;96971;-42
2021/12/30 06:51:35;;;;;;;2.03;0.70;;;;;;;11.31;100.00;101351.63;4995659;28;97980;-42
2021/12/30 06:54:05;;;;;;;2.40;0.70;;;;;;;11.42;100.00;101351.91;4994182;28;100997;-42
2021/12/30 06:56:30;;;;;;;3.33;1.35;;;;;;;11.36;100.00;101349.53;4994417;28;96872;-42
2021/12/30 06:58:56;;;;;;;4.45;1.38;;;;;;;11.29;100.00;101350.84;4994951;28;96865;-42
2021/12/30 07:01:21;;;;;;;5.38;1.83;;;;;;;11.33;100.00;101365.97;4995326;28;102455;-42
2021/12/30 07:03:47;;;;;;;5.28;2.03;;;;;;;11.29;100.00;101371.66;4995440;28;98723;-42
2021/12/30 07:06:12;;;;;;;4.82;1.83;;;;;;;11.27;100.00;101358.19;4995327;28;96503;-42
2021/12/30 07:08:37;;;;;;;5.97;2.38;;;;;;;11.36;100.00;101381.19;4995695;28;101746;-42
2021/12/30 07:11:03;;;;;;;9.30;2.88;;;;;;;11.31;100.00;101364.31;4995440;28;99320;-42
2021/12/30 07:13:28;;;;;;;4.70;2.45;;;;;;;11.33;100.00;101371.41;4993878;28;101192;-42
2021/12/30 07:15:54;;;;;;;6.82;3.00;;;;;;;11.35;100.00;101391.19;4994311;28;96954;-42
2021/12/30 07:18:19;;;;;;;9.35;2.33;;;;;;;11.29;100.00;101371.66;4995248;28;103914;-42
2021/12/30 07:20:44;;;;;;;5.88;2.83;;;;;;;11.37;100.00;101393.78;4995374;28;97612;-42
2021/12/30 07:23:10;;;;;;;5.03;2.15;;;;;;;11.37;99.94;101386.56;4995337;28;106060;-42
2021/12/30 07:25:35;;;;;;;6.80;2.00;;;;;;;11.30;99.81;101366.16;4995627;28;96615;-42
2021/12/30 07:28:03;;;;;;;6.93;2.30;;;;;;;11.42;99.81;101405.28;4994165;28;96848;-42
2021/12/30 07:30:29;;;;;;;6.75;1.90;;;;;;;11.29;99.80;101385.22;4993244;28;101309;-42
2021/12/30 07:32:54;;;;;;;6.85;3.13;;;;;;;11.28;99.74;101384.34;4995223;28;97447;-42
2021/12/30 07:35:21;;;;;;;7.55;1.70;;;;;;;11.29;99.49;101390.66;4995647;28;96488;-42
2021/12/30 07:37:48;;;;;;;4.43;1.70;;;;;;;11.37;99.75;101421.81;4993850;28;96933;-42
2021/12/30 07:40:14;;;;;;;3.20;1.95;;;;;;;11.26;99.76;101402.53;4995206;28;97408;-42
2021/12/30 07:42:40;;;;;;;8.75;2.47;;;;;;;11.32;99.70;101426.63;4993724;28;99361;-42
2021/12/30 07:45:06;;;;;;;6.88;1.38;;;;;;;11.35;99.65;101428.28;4995393;28;96597;-42
2021/12/30 07:47:32;;;;;;;6.50;1.65;;;;;;;11.35;99.75;101445.44;4994043;28;96920;-42
2021/12/30 07:49:57;;;;;;;5.72;1.45;;;;;;;11.29;100.00;101434.03;4993537;28;99058;-42
2021/12/30 07:52:22;;;;;;;4.90;1.77;;;;;;;11.38;99.72;101450.66;4995054;28;97847;-42
2021/12/30 07:54:48;;;;;;;5.75;1.50;;;;;;;11.29;99.94;101444.88;4994685;28;96611;-42
2021/12/30 07:57:23;;;;;;;8.70;2.15;;;;;;;11.37;99.57;101442.59;4995082;28;96824;-42
2021/12/30 07:59:50;;;;;;;2.80;1.25;;;;;;;11.30;99.84;101431.25;4993147;28;101000;-42
2021/12/30 08:02:15;;;;;;;11.38;1.80;;;;;;;11.42;99.66;101452.25;4993367;28;101379;-42
2021/12/30 08:04:40;;;;;;;4.85;1.50;;;;;;;11.42;99.64;101459.53;4995278;28;96646;-42
2021/12/30 08:07:06;;;;;;;4.45;1.73;;;;;;;11.43;99.96;101470.28;4993405;28;96839;-42
2021/12/30 08:09:32;;;;;;;7.85;1.30;;;;;;;11.35;99.60;101450.84;4993228;28;100688;-42
2021/12/30 08:11:59;;;;;;;4.70;1.77;;;;;;;11.37;99.54;101456.16;4995148;28;97802;-42
2021/12/30 08:14:25;;;;;;;8.70;1.95;;;;;;;11.37;99.50;101446.22;4994716;28;96608;-43
2021/12/30 08:16:50;;;;;;;20.83;2.17;;;;;;;11.36;99.45;101444.44;4995054;28;96776;-42
2021/12/30 08:19:15;;;;;;;4.55;1.83;;;;;;;11.38;99.31;101444.38;4993100;28;126629;-43
2021/12/30 08:21:42;;;;;;;5.85;1.73;;;;;;;11.46;99.21;101456.56;4993379;28;127154;-42
2021/12/30 08:24:09;;;;;;;3.53;1.45;;;;;;;11.50;99.19;101461.81;4994246;28;97195;-42
2021/12/30 08:26:34;;;;;;;14.25;2.60;;;;;;;11.42;99.13;101441.41;4993107;28;96795;-42
2021/12/30 08:29:00;;;;;;;14.40;2.60;;;;;;;11.53;99.20;101453.50;4992951;28;100554;-42
2021/12/30 08:31:25;;;;;;;10.45;2.00;;;;;;;11.57;98.84;101463.22;4993835;28;115154;-42
2021/12/30 08:33:50;;;;;;;15.27;2.30;;;;;;;11.53;99.04;101454.38;4995147;28;96567;-42
2021/12/30 08:36:16;;;;;;;5.07;1.25;;;;;;;11.55;98.61;101455.16;4994819;28;96791;-42
2021/12/30 08:38:41;;;;;;;6.70;2.00;;;;;;;11.63;98.55;101471.00;4993708;28;120224;-42
2021/12/30 08:41:06;;;;;;;11.02;2.22;;;;;;;11.59;98.67;101453.16;4994038;28;99151;-42
2021/12/30 08:43:32;;;;;;;10.73;2.42;;;;;;;11.60;98.57;101454.91;4993090;28;116921;-42
2021/12/30 08:45:57;;;;;;;9.20;2.60;;;;;;;11.63;98.29;101455.63;4994589;28;96795;-42
2021/12/30 08:48:22;;;;;;;17.90;2.38;;;;;;;11.72;98.51;101465.06;4993940;28;99210;-42
2021/12/30 08:50:48;;;;;;;11.20;2.00;;;;;;;11.70;98.19;101456.13;4994199;28;97762;-42
2021/12/30 08:53:15;;;;;;;5.88;1.90;;;;;;;11.69;98.10;101462.53;4993566;28;114397;-42
2021/12/30 08:55:40;;;;;;;6.90;1.80;;;;;;;11.74;98.17;101479.44;4992883;28;97022;-42
2021/12/30 08:58:06;;;;;;;12.55;3.42;;;;;;;11.65;98.15;101464.53;4994152;28;97972;-42
2021/12/30 09:00:36;;;;;;;9.18;2.67;;;;;;;11.69;98.16;101474.25;4994278;28;97938;-42
2021/12/30 09:03:04;;;;;;;8.18;3.00;;;;;;;11.78;97.85;101481.00;4993145;28;96654;-42
2021/12/30 09:05:31;;;;;;;8.00;2.63;;;;;;;11.75;98.03;101462.19;4992596;28;96871;-42
2021/12/30 09:07:56;;;;;;;11.15;2.72;;;;;;;11.75;97.75;101464.91;4991979;28;100905;-42
2021/12/30 09:10:22;;;;;;;9.65;2.35;;;;;;;11.72;98.00;101461.47;4994048;28;96974;-42
2021/12/30 09:12:48;;;;;;;8.38;2.13;;;;;;;11.89;97.64;101481.31;4994648;28;96593;-42
2021/12/30 09:15:15;;;;;;;7.00;2.33;;;;;;;11.92;97.34;101476.66;4993975;28;96846;-42
2021/12/30 09:17:43;;;;;;;13.55;2.35;;;;;;;11.85;97.64;101466.13;4992298;28;103112;-43
2021/12/30 09:20:10;;;;;;;6.75;2.08;;;;;;;11.87;97.45;101468.81;4992278;28;100958;-42
2021/12/30 09:22:36;;;;;;;7.72;1.90;;;;;;;11.90;97.24;101483.06;4992753;28;96693;-42
2021/12/30 09:25:06;;;;;;;9.68;1.58;;;;;;;11.90;97.34;101495.75;4992962;28;96996;-42
2021/12/30 09:27:41;;;;;;;4.70;1.58;;;;;;;12.02;97.38;101503.22;4992225;28;101371;-42
2021/12/30 09:30:12;;;;;;;10.43;1.70;;;;;;;12.01;97.22;101509.63;4975908;28;101091;-42
2021/12/30 09:32:38;;;;;;;8.13;1.33;;;;;;;11.95;97.09;101490.06;4993245;28;96587;-43
2021/12/30 09:35:05;;;;;;;5.32;1.73;;;;;;;11.90;97.08;101480.34;4993894;28;96754;-42
2021/12/30 09:37:30;;;;;;;12.25;2.03;;;;;;;12.04;97.11;101503.13;4993800;28;100432;-42
2021/12/30 09:40:03;;;;;;;7.43;1.15;;;;;;;12.02;96.80;101499.63;4996954;28;97941;-42
2021/12/30 09:42:29;;;;;;;8.27;1.63;;;;;;;11.93;97.23;101483.84;4995828;28;96745;-42
2021/12/30 09:44:54;;;;;;;6.78;1.83;;;;;;;12.00;97.25;101517.84;4978869;28;96873;-42
2021/12/30 09:47:20;;;;;;;4.60;2.00;;;;;;;11.94;97.28;101513.63;4996671;28;97964;-42
2021/12/30 09:49:47;;;;;;;8.02;1.60;;;;;;;11.99;97.25;101529.63;4997341;28;97885;-42
2021/12/30 09:52:13;;;;;;;11.95;1.48;;;;;;;11.80;97.07;101494.50;4995610;28;96666;-42
2021/12/30 09:54:39;;;;;;;2.22;1.15;;;;;;;11.93;97.12;101511.00;4995689;28;96931;-42
2021/12/30 09:57:04;;;;;;;2.97;1.20;;;;;;;11.99;97.10;101533.25;4996041;28;97135;-42
2021/12/30 09:59:31;;;;;;;4.18;1.05;;;;;;;11.90;97.12;101507.50;4996230;28;97420;-42
2021/12/30 10:01:57;;;;;;;12.80;3.15;;;;;;;11.92;97.23;101510.13;4997192;28;96538;-42
2021/12/30 10:04:34;;;;;;;7.25;1.55;;;;;;;12.02;97.25;101524.06;4996893;28;96749;-42
2021/12/30 10:07:00;;;;;;;3.78;1.42;;;;;;;12.02;96.93;101530.34;4995013;28;100739;-42
2021/12/30 10:09:50;;;;;;;5.20;1.02;;;;;;;12.02;96.96;101530.34;4995021;28;101112;-42
2021/12/30 10:12:36;;;;;;;6.00;1.45;;;;;;;12.01;96.91;101528.63;4995210;28;96747;-42
2021/12/30 10:15:03;;;;;;;15.63;1.95;;;;;;;12.03;96.85;101523.94;4996984;28;96734;-42
2021/12/30 10:17:29;;;;;;;8.60;1.27;;;;;;;11.97;96.61;101513.47;4996293;28;97962;-43
2021/12/30 10:20:13;;;;;;;12.65;2.38;;;;;;;11.95;96.78;101518.09;4996135;28;99321;-43
2021/12/30 10:22:38;;;;;;;15.93;2.08;;;;;;;11.94;96.81;101524.50;4995969;28;96580;-43
2021/12/30 10:25:04;;;;;;;14.05;2.42;;;;;;;12.01;96.76;101533.16;4995990;28;108258;-43
2021/12/30 10:27:33;;;;;;;9.43;1.70;;;;;;;11.99;96.81;101535.97;4995931;28;99061;-43
2021/12/30 10:29:58;;;;;;;8.60;1.70;;;;;;;11.94;96.71;101523.59;4996027;28;97432;-43
2021/12/30 10:32:27;;;;;;;6.95;2.00;;;;;;;11.92;96.97;101522.81;4995598;28;110908;-43
2021/12/30 10:35:01;;;;;;;11.13;1.40;;;;;;;11.89;97.29;101522.03;4994676;28;96893;-43
2021/12/30 10:37:26;;;;;;;15.85;4.40;;;;;;;11.86;97.07;101514.00;4995802;28;107726;-43
2021/12/30 10:39:52;;;;;;;10.20;2.03;;;;;;;11.85;96.87;101522.28;4996212;28;99141;-43
2021/12/30 10:42:21;;;;;;;8.57;2.47;;;;;;;11.82;97.01;101523.31;4995347;28;115225;-43
2021/12/30 10:44:57;;;;;;;11.77;2.00;;;;;;;11.90;97.21;101540.06;4994864;28;97060;-43
2021/12/30 10:47:31;;;;;;;5.10;2.28;;;;;;;11.71;97.36;101497.75;4992970;28;101503;-43
2021/12/30 10:50:08;;;;;;;3.20;1.20;;;;;;;11.87;97.32;101544.81;4994657;28;101040;-43
2021/12/30 10:52:34;;;;;;;12.05;2.85;;;;;;;11.84;97.30;101543.09;4996263;28;96486;-43
2021/12/30 10:55:09;;;;;;;12.32;1.70;;;;;;;11.77;97.25;101532.66;4994746;28;96885;-43
2021/12/30 10:57:50;;;;;;;7.95;1.90;;;;;;;11.79;97.29;101541.59;4993900;28;100895;-43
2021/12/30 11:00:31;;;;;;;2.60;1.25;;;;;;;11.82;97.51;101550.47;4993723;28;98474;-43
2021/12/30 11:03:29;;;;;;;4.50;1.88;;;;;;;11.87;97.42;101542.09;4994616;28;96657;-43
2021/12/30 11:06:14;;;;;;;9.35;2.20;;;;;;;11.88;97.56;101571.84;4994072;28;96938;-43
2021/12/30 11:08:41;;;;;;;10.27;1.67;;;;;;;11.71;97.52;101522.16;4993882;28;100986;-42
2021/12/30 11:11:28;;;;;;;3.28;1.55;;;;;;;11.86;97.54;101565.59;4993747;28;100822;-42
2021/12/30 11:14:18;;;;;;;10.27;1.77;;;;;;;11.89;97.64;101583.56;4993790;28;96647;-43
2021/12/30 11:17:04;;;;;;;3.95;1.83;;;;;;;11.89;97.57;101573.63;4983863;28;96916;-43
2021/12/30 11:19:31;;;;;;;3.50;1.80;;;;;;;11.86;97.52;101541.16;4982967;28;101345;-43
2021/12/30 11:21:59;;;;;;;3.17;1.98;;;;;;;11.92;97.39;101552.66;4984231;28;99721;-43